createdAt,value
2022-12-09T00:02:05.468Z,8.30
2022-12-09T00:04:54.623Z,9.13
2022-12-09T00:07:43.401Z,8.43
2022-12-09T00:10:33.854Z,8.23
2022-12-09T00:13:22.890Z,8.03
2022-12-09T00:16:13.263Z,7.67
2022-12-09T00:19:01.984Z,7.43
2022-12-09T00:21:50.670Z,7.50
2022-12-09T00:24:39.542Z,7.60
2022-12-09T00:27:29.653Z,7.50
2022-12-09T00:30:18.560Z,7.37
2022-12-09T00:33:07.505Z,7.30
2022-12-09T00:35:56.088Z,7.77
2022-12-09T00:38:45.140Z,7.27
2022-12-09T00:41:34.004Z,7.90
2022-12-09T00:44:24.142Z,8.33
2022-12-09T00:47:12.938Z,7.00
2022-12-09T00:50:01.866Z,7.87
2022-12-09T00:52:51.282Z,7.37
2022-12-09T00:55:40.413Z,7.40
2022-12-09T00:58:29.615Z,7.63
2022-12-09T01:01:19.898Z,8.43
2022-12-09T01:04:09.638Z,8.40
2022-12-09T01:06:58.683Z,8.10
2022-12-09T01:09:49.631Z,7.83
2022-12-09T01:12:39.044Z,8.33
2022-12-09T01:15:27.896Z,8.13
2022-12-09T01:18:17.891Z,8.57
2022-12-09T01:21:06.975Z,9.77
2022-12-09T01:23:55.642Z,9.63
2022-12-09T01:26:44.343Z,9.63
2022-12-09T01:29:33.289Z,9.90
2022-12-09T01:32:22.664Z,10.00
2022-12-09T01:35:12.900Z,9.70
2022-12-09T01:38:02.104Z,9.93
2022-12-09T01:40:51.392Z,9.50
2022-12-09T01:43:40.381Z,9.73
2022-12-09T01:46:29.211Z,10.13
2022-12-09T01:49:22.213Z,9.00
2022-12-09T01:52:32.701Z,9.73
2022-12-09T01:55:21.777Z,9.33
2022-12-09T01:58:10.867Z,9.43
2022-12-09T02:01:01.296Z,9.17
2022-12-09T02:03:50.406Z,9.63
2022-12-09T02:06:39.390Z,9.63
2022-12-09T02:09:32.806Z,9.13
2022-12-09T02:12:25.437Z,8.97
2022-12-09T02:15:16.766Z,9.47
2022-12-09T02:18:09.295Z,9.17
2022-12-09T02:21:01.984Z,9.87
2022-12-09T02:23:54.936Z,10.73
2022-12-09T02:26:46.814Z,10.20
2022-12-09T02:30:00.871Z,10.10
2022-12-09T02:33:13.330Z,9.30
2022-12-09T02:36:04.566Z,9.80
2022-12-09T02:38:53.775Z,9.53
2022-12-09T02:41:43.962Z,9.87
2022-12-09T02:44:33.238Z,9.47
2022-12-09T02:47:23.900Z,9.63
2022-12-09T02:50:14.843Z,10.20
2022-12-09T02:53:07.684Z,9.47
2022-12-09T02:55:57.187Z,9.13
2022-12-09T02:58:47.106Z,9.20
2022-12-09T03:01:46.449Z,7.93
2022-12-09T03:04:35.384Z,9.07
2022-12-09T03:07:28.529Z,8.60
2022-12-09T03:10:22.425Z,8.37
2022-12-09T03:13:15.199Z,8.50
2022-12-09T03:16:08.590Z,7.80
2022-12-09T03:19:00.671Z,9.33
2022-12-09T03:21:51.049Z,10.27
2022-12-09T03:24:41.576Z,10.20
2022-12-09T03:27:35.471Z,10.10
2022-12-09T03:30:25.188Z,10.20
2022-12-09T03:33:14.568Z,9.60
2022-12-09T03:36:06.298Z,11.17
2022-12-09T03:38:55.013Z,9.50
2022-12-09T03:41:46.422Z,10.80
2022-12-09T03:44:38.697Z,9.43
2022-12-09T03:47:27.696Z,10.03
2022-12-09T03:50:16.515Z,9.83
2022-12-09T03:53:07.572Z,9.60
2022-12-09T03:56:02.378Z,10.63
2022-12-09T03:58:53.952Z,10.83
2022-12-09T04:01:44.669Z,10.60
2022-12-09T04:04:35.989Z,10.10
2022-12-09T04:07:24.901Z,10.10
2022-12-09T04:10:14.348Z,10.30
2022-12-09T04:13:03.172Z,10.20
2022-12-09T04:15:51.674Z,10.33
2022-12-09T04:18:41.644Z,10.30
2022-12-09T04:21:30.136Z,9.70
2022-12-09T04:24:18.595Z,10.33
2022-12-09T04:27:07.135Z,9.27
2022-12-09T04:29:55.572Z,10.67
2022-12-09T04:32:44.318Z,10.97
2022-12-09T04:35:34.281Z,10.13
2022-12-09T04:38:22.866Z,10.57
2022-12-09T04:41:13.302Z,10.40
2022-12-09T04:44:02.519Z,11.03
2022-12-09T04:46:51.157Z,10.80
2022-12-09T04:49:39.644Z,9.90
2022-12-09T04:52:29.540Z,9.97
2022-12-09T04:55:19.252Z,10.80
2022-12-09T04:58:07.688Z,9.87
2022-12-09T05:00:56.165Z,10.87
2022-12-09T05:03:45.189Z,10.83
2022-12-09T05:06:33.909Z,11.03
2022-12-09T05:09:24.422Z,10.37
2022-12-09T05:12:13.111Z,10.63
2022-12-09T05:15:01.676Z,9.80
2022-12-09T05:17:50.600Z,10.07
2022-12-09T05:20:40.088Z,9.70
2022-12-09T05:23:28.747Z,9.50
2022-12-09T05:26:20.246Z,9.93
2022-12-09T05:29:09.322Z,9.70
2022-12-09T05:31:58.129Z,9.40
2022-12-09T05:34:46.887Z,9.30
2022-12-09T05:37:35.660Z,8.80
2022-12-09T05:40:24.281Z,8.47
2022-12-09T05:43:14.482Z,8.57
2022-12-09T05:46:03.219Z,9.13
2022-12-09T05:48:52.429Z,8.10
2022-12-09T05:51:41.387Z,8.83
2022-12-09T05:54:30.240Z,8.47
2022-12-09T05:57:19.099Z,7.43
2022-12-09T06:00:11.031Z,8.00
2022-12-09T06:03:02.883Z,8.27
2022-12-09T06:05:52.323Z,8.37
2022-12-09T06:08:41.451Z,9.20
2022-12-09T06:11:32.338Z,8.80
2022-12-09T06:14:21.001Z,8.93
2022-12-09T06:17:11.134Z,8.70
2022-12-09T06:19:59.784Z,8.83
2022-12-09T06:22:48.535Z,7.97
2022-12-09T06:25:37.536Z,9.00
2022-12-09T06:28:26.186Z,8.30
2022-12-09T06:31:14.853Z,8.03
2022-12-09T06:34:05.387Z,7.80
2022-12-09T06:36:54.242Z,8.23
2022-12-09T06:39:43.092Z,7.70
2022-12-09T06:42:31.918Z,7.83
2022-12-09T06:45:21.137Z,7.87
2022-12-09T06:48:10.000Z,6.67
2022-12-09T06:50:59.893Z,7.20
2022-12-09T06:53:48.842Z,7.57
2022-12-09T06:56:37.450Z,7.13
2022-12-09T06:59:26.284Z,6.53
2022-12-09T07:02:15.220Z,7.30
2022-12-09T07:04:43.678Z,7.77
2022-12-09T07:07:15.113Z,7.43
2022-12-09T07:09:43.561Z,7.53
2022-12-09T07:12:12.241Z,8.17
2022-12-09T07:14:40.609Z,9.03
2022-12-09T07:17:09.860Z,8.67
2022-12-09T07:19:38.244Z,8.23
2022-12-09T07:22:06.947Z,8.60
2022-12-09T07:24:37.801Z,9.00
2022-12-09T07:27:09.649Z,9.07
2022-12-09T07:29:40.271Z,8.93
2022-12-09T07:32:10.147Z,9.57
2022-12-09T07:34:38.911Z,8.07
2022-12-09T07:37:07.282Z,8.57
2022-12-09T07:39:37.022Z,8.40
2022-12-09T07:42:06.574Z,8.50
2022-12-09T07:44:46.621Z,8.00
2022-12-09T07:47:14.950Z,9.20
2022-12-09T07:49:43.793Z,9.43
2022-12-09T07:52:13.485Z,8.80
2022-12-09T07:54:43.712Z,8.60
2022-12-09T07:57:12.540Z,8.83
2022-12-09T07:59:40.916Z,9.47
2022-12-09T08:02:10.678Z,9.53
2022-12-09T08:04:39.400Z,8.73
2022-12-09T08:07:08.189Z,9.17
2022-12-09T08:09:36.864Z,9.30
2022-12-09T08:12:07.743Z,9.30
2022-12-09T08:14:36.080Z,9.23
2022-12-09T08:17:04.564Z,8.63
2022-12-09T08:19:33.161Z,9.37
2022-12-09T08:22:01.693Z,9.53
2022-12-09T08:24:30.110Z,9.63
2022-12-09T08:26:58.735Z,9.27
2022-12-09T08:29:29.320Z,9.17
2022-12-09T08:31:57.765Z,9.77
2022-12-09T08:34:26.246Z,8.90
2022-12-09T08:37:00.258Z,8.63
2022-12-09T08:39:30.398Z,9.53
2022-12-09T08:41:58.848Z,9.67
2022-12-09T08:44:28.541Z,9.73
2022-12-09T08:46:56.966Z,9.93
2022-12-09T08:49:25.331Z,10.20
2022-12-09T08:51:54.698Z,9.63
2022-12-09T08:54:23.288Z,10.17
2022-12-09T08:56:53.661Z,10.23
2022-12-09T08:59:22.917Z,10.07
2022-12-09T09:01:53.412Z,9.87
2022-12-09T09:04:23.038Z,10.33
2022-12-09T09:06:52.590Z,12.30
2022-12-09T09:09:21.752Z,11.87
2022-12-09T09:11:50.473Z,12.33
2022-12-09T09:14:19.367Z,11.20
2022-12-09T09:16:48.105Z,11.63
2022-12-09T09:19:19.960Z,16.27
2022-12-09T09:21:48.888Z,11.90
2022-12-09T09:24:19.095Z,12.43
2022-12-09T09:26:48.448Z,11.07
2022-12-09T09:29:17.837Z,11.07
2022-12-09T09:31:48.687Z,8.63
2022-12-09T09:34:19.158Z,9.07
2022-12-09T09:36:47.653Z,9.20
2022-12-09T09:39:16.066Z,8.67
2022-12-09T09:41:50.161Z,9.33
2022-12-09T09:44:24.086Z,9.60
2022-12-09T09:46:54.525Z,9.43
2022-12-09T09:49:31.123Z,9.00
2022-12-09T09:51:59.839Z,9.30
2022-12-09T09:54:28.653Z,10.00
2022-12-09T09:57:00.790Z,8.87
2022-12-09T09:59:38.373Z,9.47
2022-12-09T10:02:18.301Z,9.53
2022-12-09T10:04:59.092Z,10.13
2022-12-09T10:07:34.812Z,9.40
2022-12-09T10:10:12.174Z,8.90
2022-12-09T10:12:45.253Z,9.70
2022-12-09T10:15:16.042Z,10.17
2022-12-09T10:17:49.075Z,10.00
2022-12-09T10:20:21.550Z,9.87
2022-12-09T10:22:53.530Z,9.33
2022-12-09T10:25:25.112Z,10.03
2022-12-09T10:27:56.824Z,10.40
2022-12-09T10:30:29.970Z,9.70
2022-12-09T10:33:02.175Z,9.77
2022-12-09T10:35:32.922Z,9.50
2022-12-09T10:38:08.305Z,10.90
2022-12-09T10:40:38.839Z,11.47
2022-12-09T10:43:38.837Z,11.10
2022-12-09T10:46:18.774Z,10.50
2022-12-09T10:48:54.063Z,10.77
2022-12-09T10:51:25.977Z,10.33
2022-12-09T10:53:56.184Z,10.10
2022-12-09T10:56:27.588Z,9.97
2022-12-09T10:59:11.540Z,9.80
2022-12-09T11:01:51.768Z,11.60
2022-12-09T11:04:25.131Z,9.87
2022-12-09T11:06:59.770Z,9.60
2022-12-09T11:09:30.134Z,10.43
2022-12-09T11:11:59.432Z,10.07
2022-12-09T11:14:33.470Z,9.93
2022-12-09T11:17:12.912Z,10.63
2022-12-09T11:19:41.813Z,10.23
2022-12-09T11:22:26.096Z,10.40
2022-12-09T11:24:56.740Z,10.83
2022-12-09T11:27:28.933Z,10.20
2022-12-09T11:30:13.062Z,11.07
2022-12-09T11:32:59.823Z,10.70
2022-12-09T11:35:39.118Z,11.07
2022-12-09T11:38:19.323Z,10.40
2022-12-09T11:41:02.972Z,11.37
2022-12-09T11:43:39.180Z,11.37
2022-12-09T11:46:22.418Z,10.57
2022-12-09T11:48:56.182Z,11.03
2022-12-09T11:51:26.858Z,10.97
2022-12-09T11:54:03.365Z,11.00
2022-12-09T11:56:32.087Z,11.50
2022-12-09T11:59:03.247Z,11.03
2022-12-09T12:01:40.381Z,11.30
2022-12-09T12:04:11.126Z,10.87
2022-12-09T12:06:48.914Z,11.27
2022-12-09T12:09:24.971Z,11.20
2022-12-09T12:12:04.509Z,11.03
2022-12-09T12:14:32.711Z,10.73
2022-12-09T12:17:08.416Z,10.70
2022-12-09T12:19:39.256Z,10.47
2022-12-09T12:22:37.974Z,11.00
2022-12-09T12:25:29.470Z,11.30
2022-12-09T12:28:35.538Z,10.03
2022-12-09T12:31:10.053Z,10.60
2022-12-09T12:34:15.946Z,10.97
2022-12-09T12:36:47.102Z,10.60
2022-12-09T12:39:33.966Z,10.57
2022-12-09T12:42:10.024Z,10.97
2022-12-09T12:45:04.125Z,10.50
2022-12-09T12:47:38.793Z,10.43
2022-12-09T12:50:46.700Z,10.13
2022-12-09T12:53:26.271Z,9.43
2022-12-09T12:55:59.400Z,9.97
2022-12-09T12:58:46.881Z,9.40
2022-12-09T13:01:21.628Z,8.93
2022-12-09T13:03:58.630Z,9.97
2022-12-09T13:06:36.194Z,9.27
2022-12-09T13:09:06.619Z,9.97
2022-12-09T13:11:38.484Z,10.47
2022-12-09T13:14:10.213Z,9.43
2022-12-09T13:16:40.999Z,9.27
2022-12-09T13:19:13.344Z,9.43
2022-12-09T13:21:41.492Z,10.80
2022-12-09T13:24:19.593Z,9.37
2022-12-09T13:26:50.935Z,9.47
2022-12-09T13:29:31.980Z,9.47
2022-12-09T13:32:12.331Z,9.57
2022-12-09T13:34:42.610Z,8.77
2022-12-09T13:37:52.346Z,8.80
2022-12-09T13:40:35.223Z,8.53
2022-12-09T13:43:19.553Z,8.70
2022-12-09T13:45:52.177Z,9.10
2022-12-09T13:48:48.218Z,9.57
2022-12-09T13:51:17.138Z,8.80
2022-12-09T13:53:52.343Z,8.97
2022-12-09T13:56:27.220Z,8.70
2022-12-09T13:59:41.486Z,8.47
2022-12-09T14:02:26.495Z,8.43
2022-12-09T14:05:02.778Z,8.60
2022-12-09T14:07:36.427Z,8.67
2022-12-09T14:10:05.923Z,8.17
2022-12-09T14:13:04.574Z,8.20
2022-12-09T14:15:40.409Z,8.33
2022-12-09T14:18:32.664Z,8.30
2022-12-09T14:21:30.470Z,8.23
2022-12-09T14:24:34.326Z,8.20
2022-12-09T14:27:16.822Z,8.27
2022-12-09T14:29:53.897Z,8.53
2022-12-09T14:32:29.937Z,8.27
2022-12-09T14:35:07.083Z,9.00
2022-12-09T14:37:54.913Z,8.77
2022-12-09T14:40:50.544Z,8.83
2022-12-09T14:43:47.026Z,8.93
2022-12-09T14:46:27.275Z,8.03
2022-12-09T14:48:58.084Z,8.73
2022-12-09T14:51:33.258Z,8.83
2022-12-09T14:54:03.651Z,9.07
2022-12-09T14:56:32.317Z,9.73
2022-12-09T14:59:04.527Z,8.13
2022-12-09T15:01:52.394Z,8.90
2022-12-09T15:04:31.075Z,8.90
2022-12-09T15:07:15.580Z,9.67
2022-12-09T15:09:52.645Z,9.77
2022-12-09T15:12:22.948Z,9.83
2022-12-09T15:14:55.626Z,9.33
2022-12-09T15:17:28.421Z,8.77
2022-12-09T15:20:01.396Z,9.20
2022-12-09T15:22:33.202Z,9.03
2022-12-09T15:25:03.038Z,8.67
2022-12-09T15:27:31.450Z,9.20
2022-12-09T15:29:59.617Z,8.90
2022-12-09T15:32:30.230Z,8.97
2022-12-09T15:35:16.805Z,9.63
2022-12-09T15:37:46.295Z,9.10
2022-12-09T15:40:16.633Z,8.20
2022-12-09T15:42:45.324Z,8.63
2022-12-09T15:45:14.773Z,8.40
2022-12-09T15:47:45.268Z,8.57
2022-12-09T15:50:18.209Z,7.93
2022-12-09T15:52:51.684Z,8.63
2022-12-09T15:55:22.206Z,9.00
2022-12-09T15:57:50.713Z,8.83
2022-12-09T16:00:19.733Z,9.03
2022-12-09T16:02:48.027Z,8.80
2022-12-09T16:05:22.633Z,8.27
2022-12-09T16:07:56.786Z,9.60
2022-12-09T16:10:27.050Z,8.20
2022-12-09T16:13:10.155Z,9.23
2022-12-09T16:15:47.716Z,8.97
2022-12-09T16:18:23.140Z,9.07
2022-12-09T16:21:23.768Z,8.97
2022-12-09T16:23:55.427Z,8.97
2022-12-09T16:26:28.902Z,8.73
2022-12-09T16:28:58.949Z,9.20
2022-12-09T16:31:27.218Z,8.13
2022-12-09T16:33:55.408Z,7.93
2022-12-09T16:36:27.172Z,7.70
2022-12-09T16:39:33.721Z,7.87
2022-12-09T16:42:03.180Z,8.17
2022-12-09T16:44:35.920Z,7.87
2022-12-09T16:47:12.989Z,7.97
2022-12-09T16:49:42.415Z,7.73
2022-12-09T16:52:13.741Z,7.93
2022-12-09T16:54:44.001Z,8.13
2022-12-09T16:57:16.000Z,7.73
2022-12-09T16:59:44.687Z,8.47
2022-12-09T17:02:22.550Z,7.70
2022-12-09T17:04:50.714Z,7.87
2022-12-09T17:07:18.922Z,7.97
2022-12-09T17:09:48.367Z,7.67
2022-12-09T17:12:16.677Z,8.27
2022-12-09T17:14:44.900Z,7.53
2022-12-09T17:17:13.148Z,7.83
2022-12-09T17:19:42.138Z,7.57
2022-12-09T17:22:10.289Z,7.87
2022-12-09T17:24:38.513Z,7.60
2022-12-09T17:27:08.008Z,8.77
2022-12-09T17:29:37.210Z,7.57
2022-12-09T17:32:06.310Z,7.63
2022-12-09T17:34:34.628Z,7.47
2022-12-09T17:37:02.811Z,7.87
2022-12-09T17:39:31.710Z,7.50
2022-12-09T17:41:59.903Z,7.23
2022-12-09T17:44:29.436Z,7.13
2022-12-09T17:46:57.618Z,8.00
2022-12-09T17:49:25.801Z,7.70
2022-12-09T17:51:53.952Z,7.73
2022-12-09T17:54:22.129Z,8.37
2022-12-09T17:56:50.289Z,8.23
2022-12-09T17:59:18.936Z,16.90
2022-12-09T18:01:48.459Z,17.33
2022-12-09T18:04:16.707Z,21.07
2022-12-09T18:06:46.232Z,11.40
2022-12-09T18:09:15.957Z,11.43
2022-12-09T18:11:44.219Z,12.37
2022-12-09T18:14:12.420Z,10.37
2022-12-09T18:16:40.654Z,10.53
2022-12-09T18:19:14.769Z,13.43
2022-12-09T18:21:43.243Z,13.63
2022-12-09T18:24:11.440Z,11.47
2022-12-09T18:26:41.955Z,11.47
2022-12-09T18:29:10.872Z,10.83
2022-12-09T18:31:39.754Z,11.30
2022-12-09T18:34:09.248Z,16.07
2022-12-09T18:36:37.540Z,13.93
2022-12-09T18:39:05.721Z,10.23
2022-12-09T18:41:34.207Z,9.10
2022-12-09T18:44:05.404Z,9.17
2022-12-09T18:46:35.599Z,9.93
2022-12-09T18:49:05.975Z,9.20
2022-12-09T18:51:35.593Z,9.30
2022-12-09T18:54:03.748Z,8.60
2022-12-09T18:56:32.349Z,8.70
2022-12-09T18:59:08.961Z,8.80
2022-12-09T19:01:40.356Z,8.13
2022-12-09T19:04:12.276Z,9.17
2022-12-09T19:06:43.410Z,9.13
2022-12-09T19:09:12.858Z,10.23
2022-12-09T19:11:41.736Z,9.50
2022-12-09T19:14:10.130Z,9.43
2022-12-09T19:16:38.443Z,8.33
2022-12-09T19:19:10.064Z,8.57
2022-12-09T19:21:38.857Z,9.07
2022-12-09T19:24:13.465Z,10.77
2022-12-09T19:26:42.585Z,10.00
2022-12-09T19:29:11.368Z,9.80
2022-12-09T19:31:41.176Z,11.00
2022-12-09T19:34:13.387Z,11.23
2022-12-09T19:36:41.738Z,11.20
2022-12-09T19:39:11.577Z,11.10
2022-12-09T19:41:41.425Z,10.80
2022-12-09T19:44:10.733Z,11.30
2022-12-09T19:46:39.340Z,10.10
2022-12-09T19:49:07.665Z,10.13
2022-12-09T19:51:35.772Z,10.63
2022-12-09T19:54:04.016Z,10.80
2022-12-09T19:56:33.580Z,10.87
2022-12-09T19:59:01.807Z,10.10
2022-12-09T20:01:31.730Z,10.40
2022-12-09T20:04:13.567Z,9.93
2022-12-09T20:06:47.977Z,9.37
2022-12-09T20:09:19.243Z,9.47
2022-12-09T20:11:48.772Z,10.27
2022-12-09T20:14:17.020Z,8.90
2022-12-09T20:16:45.211Z,9.53
2022-12-09T20:19:13.438Z,9.93
2022-12-09T20:21:41.697Z,9.97
2022-12-09T20:24:10.095Z,11.57
2022-12-09T20:26:38.698Z,12.23
2022-12-09T20:29:10.423Z,11.27
2022-12-09T20:31:39.271Z,11.53
2022-12-09T20:34:09.289Z,10.20
2022-12-09T20:36:38.175Z,10.73
2022-12-09T20:39:14.952Z,11.43
2022-12-09T20:41:44.363Z,10.93
2022-12-09T20:44:14.482Z,11.33
2022-12-09T20:46:46.353Z,11.50
2022-12-09T20:49:14.612Z,9.73
2022-12-09T20:51:45.071Z,9.30
2022-12-09T20:54:13.533Z,9.57
2022-12-09T20:56:41.998Z,16.33
2022-12-09T20:59:11.580Z,19.63
2022-12-09T21:01:41.194Z,29.37
2022-12-09T21:04:27.960Z,22.30
2022-12-09T21:07:16.835Z,19.03
2022-12-09T21:10:06.994Z,24.63
2022-12-09T21:12:55.711Z,26.43
2022-12-09T21:15:44.140Z,15.63
2022-12-09T21:18:34.710Z,14.10
2022-12-09T21:21:24.197Z,17.03
2022-12-09T21:24:12.804Z,13.50
2022-12-09T21:27:01.628Z,14.70
2022-12-09T21:29:50.228Z,12.97
2022-12-09T21:32:39.379Z,11.93
2022-12-09T21:35:29.134Z,11.70
2022-12-09T21:38:17.576Z,13.03
2022-12-09T21:41:07.597Z,19.03
2022-12-09T21:43:56.143Z,16.00
2022-12-09T21:46:44.627Z,17.13
2022-12-09T21:49:34.745Z,15.93
2022-12-09T21:52:24.509Z,14.33
2022-12-09T21:55:12.974Z,15.07
2022-12-09T21:58:01.387Z,14.50
2022-12-09T22:00:49.857Z,13.40
2022-12-09T22:03:38.426Z,14.00
2022-12-09T22:06:26.942Z,13.30
2022-12-09T22:09:17.462Z,11.80
2022-12-09T22:12:06.870Z,13.40
2022-12-09T22:14:55.750Z,12.43
2022-12-09T22:17:44.169Z,13.77
2022-12-09T22:21:15.470Z,12.43
2022-12-09T22:23:41.149Z,13.37
2022-12-09T22:26:31.197Z,12.40
2022-12-09T22:29:19.596Z,12.47
2022-12-09T22:32:08.008Z,13.13
2022-12-09T22:34:56.479Z,14.07
2022-12-09T22:37:44.866Z,13.77
2022-12-09T22:40:33.243Z,12.73
2022-12-09T22:43:24.281Z,14.63
2022-12-09T22:46:14.181Z,13.10
2022-12-09T22:49:05.898Z,13.20
2022-12-09T22:51:59.146Z,13.90
2022-12-09T22:54:49.011Z,13.73
2022-12-09T22:57:37.867Z,13.40
2022-12-09T23:00:27.635Z,12.93
2022-12-09T23:03:16.589Z,12.63
2022-12-09T23:06:05.532Z,14.07
2022-12-09T23:08:54.013Z,12.10
2022-12-09T23:11:42.449Z,10.40
2022-12-09T23:14:30.848Z,11.43
2022-12-09T23:17:20.564Z,11.70
2022-12-09T23:20:10.363Z,10.93
2022-12-09T23:22:58.872Z,11.20
2022-12-09T23:25:47.425Z,11.87
2022-12-09T23:28:36.957Z,12.13
2022-12-09T23:31:27.004Z,12.57
2022-12-09T23:34:16.799Z,12.17
2022-12-09T23:37:05.204Z,13.00
2022-12-09T23:39:55.323Z,11.80
2022-12-09T23:42:43.694Z,11.27
2022-12-09T23:45:32.085Z,11.07
2022-12-09T23:48:20.479Z,10.20
2022-12-09T23:51:13.965Z,10.93
2022-12-09T23:54:03.516Z,11.07
2022-12-09T23:56:51.903Z,10.33
2022-12-09T23:59:40.385Z,9.60
